Time;durP1;ratioP1;P1;durP2;ratioP2;P2;SDS_P1;SDS_P2;PMS_P1;PMS_P2;Temp;Humidity;BMP_temperature;BMP_pressure;BME280_temperature;BME280_humidity;BME280_pressure;Samples;Min_cycle;Max_cycle;Signal;HPM_P1;HPM_P2
2022/10/22 00:01:23;;;;;;;1.10;0.82;;;13.00;99.90;;;;;;5005688;28;20207;-67
2022/10/22 00:03:50;;;;;;;1.33;1.07;;;12.90;99.90;;;;;;5006203;28;20223;-68
2022/10/22 00:06:17;;;;;;;1.30;0.90;;;12.90;99.90;;;;;;5005921;28;20836;-68
2022/10/22 00:08:43;;;;;;;1.10;1.00;;;12.90;99.90;;;;;;5006223;28;20222;-67
2022/10/22 00:11:12;;;;;;;1.00;0.80;;;12.90;99.90;;;;;;5005567;28;20242;-67
2022/10/22 00:13:39;;;;;;;1.80;0.88;;;12.80;99.90;;;;;;5006416;28;20539;-68
2022/10/22 00:16:07;;;;;;;1.55;0.98;;;12.80;99.90;;;;;;5005975;28;20213;-67
2022/10/22 00:18:34;;;;;;;1.05;0.93;;;12.80;99.90;;;;;;5006314;28;20203;-67
2022/10/22 00:21:01;;;;;;;1.15;0.82;;;12.80;99.90;;;;;;5003781;28;20254;-68
2022/10/22 00:23:28;;;;;;;1.45;0.90;;;12.80;99.90;;;;;;5005180;28;20298;-68
2022/10/22 00:25:55;;;;;;;1.00;0.90;;;12.80;99.90;;;;;;5005994;28;20680;-67
2022/10/22 00:28:22;;;;;;;0.90;0.80;;;12.80;99.90;;;;;;5005173;28;20573;-67
2022/10/22 00:30:48;;;;;;;0.80;0.80;;;12.80;99.90;;;;;;5005702;28;20229;-67
2022/10/22 00:33:16;;;;;;;1.50;0.77;;;12.80;99.90;;;;;;5005602;28;20203;-68
2022/10/22 00:35:44;;;;;;;1.02;0.93;;;12.80;99.90;;;;;;5008422;28;20210;-67
2022/10/22 00:38:11;;;;;;;1.13;1.02;;;12.80;99.90;;;;;;5009675;28;20859;-68
2022/10/22 00:40:38;;;;;;;0.90;0.80;;;12.80;99.90;;;;;;5009675;28;20210;-67
2022/10/22 00:43:05;;;;;;;1.55;0.85;;;12.70;99.90;;;;;;5009029;28;20993;-67
2022/10/22 00:45:31;;;;;;;0.90;0.70;;;12.70;99.90;;;;;;5009623;28;20668;-68
2022/10/22 00:48:03;;;;;;;1.38;0.73;;;12.80;99.90;;;;;;5009535;28;20306;-68
2022/10/22 00:50:34;;;;;;;1.10;0.70;;;12.80;99.90;;;;;;5009501;28;20226;-67
2022/10/22 00:53:02;;;;;;;1.92;0.90;;;12.80;99.90;;;;;;5008968;28;20212;-67
2022/10/22 00:55:30;;;;;;;0.82;0.73;;;12.80;99.90;;;;;;5009604;28;20226;-68
2022/10/22 00:57:58;;;;;;;1.05;0.82;;;12.80;99.90;;;;;;5009314;28;20229;-67
2022/10/22 01:00:25;;;;;;;1.75;0.90;;;12.80;99.90;;;;;;5009316;28;20232;-67
2022/10/22 01:02:53;;;;;;;1.17;0.90;;;12.70;99.90;;;;;;5008766;28;20218;-68
2022/10/22 01:05:20;;;;;;;1.55;1.00;;;12.70;99.90;;;;;;5008903;28;20231;-67
2022/10/22 01:07:51;;;;;;;0.90;0.80;;;12.70;99.90;;;;;;5072793;22;20231;-65
2022/10/22 01:10:33;;;;;;;1.52;0.85;;;12.70;99.90;;;;;;4993134;28;20216;-65
2022/10/22 01:13:12;;;;;;;0.90;0.80;;;12.70;99.90;;;;;;4991246;28;20204;-64
2022/10/22 01:15:45;;;;;;;1.08;0.95;;;12.70;99.90;;;;;;4993759;28;20741;-65
2022/10/22 01:18:21;;;;;;;0.80;0.80;;;12.70;99.90;;;;;;4994063;28;20210;-65
2022/10/22 01:21:00;;;;;;;2.08;0.95;;;12.70;99.90;;;;;;4993559;28;20200;-65
2022/10/22 01:23:56;;;;;;;1.92;1.15;;;12.70;99.90;;;;;;4992991;28;20290;-65
2022/10/22 01:26:31;;;;;;;1.10;0.88;;;12.70;99.90;;;;;;4986672;28;20215;-67
2022/10/22 01:29:04;;;;;;;1.00;0.90;;;12.60;99.90;;;;;;4993241;28;20208;-67
2022/10/22 01:31:36;;;;;;;1.00;0.90;;;12.60;99.90;;;;;;4992928;28;20228;-67
2022/10/22 01:34:04;;;;;;;1.00;0.90;;;12.60;99.90;;;;;;4992850;28;20231;-67
2022/10/22 01:36:33;;;;;;;1.25;0.80;;;12.60;99.90;;;;;;4993359;28;20208;-67
2022/10/22 01:39:02;;;;;;;2.45;1.80;;;12.50;99.90;;;;;;4993247;28;20625;-67
2022/10/22 01:41:29;;;;;;;1.02;0.90;;;12.50;99.90;;;;;;4992661;28;20200;-67
2022/10/22 01:43:56;;;;;;;1.02;0.93;;;12.50;99.90;;;;;;4993096;28;20223;-67
2022/10/22 01:46:26;;;;;;;1.70;0.93;;;12.50;99.90;;;;;;4992857;28;20211;-67
2022/10/22 01:49:04;;;;;;;1.00;0.82;;;12.60;99.90;;;;;;4992951;28;20599;-65
2022/10/22 01:51:47;;;;;;;1.02;0.77;;;12.60;99.90;;;;;;4992180;28;20243;-65
2022/10/22 01:54:25;;;;;;;0.95;0.85;;;12.60;99.90;;;;;;4993096;28;20235;-65
2022/10/22 01:57:02;;;;;;;1.77;0.80;;;12.70;99.90;;;;;;4992741;28;20222;-67
2022/10/22 01:59:36;;;;;;;1.45;0.80;;;12.60;99.90;;;;;;4992796;28;20469;-67
2022/10/22 02:02:13;;;;;;;0.80;0.70;;;12.60;99.90;;;;;;4992542;28;20196;-67
2022/10/22 02:04:47;;;;;;;1.03;0.93;;;12.70;99.90;;;;;;4992468;28;20290;-67
2022/10/22 02:07:18;;;;;;;1.02;0.90;;;12.70;99.90;;;;;;4992686;28;20574;-67
2022/10/22 02:09:45;;;;;;;0.90;0.73;;;12.70;99.90;;;;;;4992420;28;20204;-67
2022/10/22 02:12:13;;;;;;;1.02;0.90;;;12.70;99.90;;;;;;4992092;28;20470;-67
2022/10/22 02:14:43;;;;;;;2.10;1.10;;;12.70;99.90;;;;;;4992386;28;20255;-68
2022/10/22 02:17:18;;;;;;;2.17;1.08;;;12.70;99.90;;;;;;4992599;28;20210;-68
2022/10/22 02:19:50;;;;;;;0.80;0.70;;;12.70;99.90;;;;;;4992401;28;20204;-68
2022/10/22 02:22:17;;;;;;;1.15;0.70;;;12.80;99.90;;;;;;4992036;28;20207;-67
2022/10/22 02:24:44;;;;;;;1.05;0.90;;;12.80;99.90;;;;;;4992334;28;20231;-67
2022/10/22 02:27:20;;;;;;;0.80;0.80;;;12.70;99.90;;;;;;4992554;28;20204;-67
2022/10/22 02:29:51;;;;;;;0.90;0.80;;;12.70;99.90;;;;;;4992019;28;20846;-67
2022/10/22 02:32:22;;;;;;;1.13;1.00;;;12.70;99.90;;;;;;4991916;28;20207;-67
2022/10/22 02:34:50;;;;;;;0.90;0.80;;;12.70;99.90;;;;;;4992031;28;20234;-67
2022/10/22 02:37:19;;;;;;;3.77;0.97;;;12.70;99.90;;;;;;4992376;28;20208;-67
2022/10/22 02:39:46;;;;;;;1.00;0.80;;;12.70;99.90;;;;;;4991894;28;20467;-67
2022/10/22 02:42:13;;;;;;;1.33;0.80;;;12.70;99.90;;;;;;4991623;28;20208;-67
2022/10/22 02:44:40;;;;;;;1.45;0.90;;;12.70;99.90;;;;;;4991697;28;20546;-67
2022/10/22 02:47:07;;;;;;;0.90;0.80;;;12.70;99.90;;;;;;4992015;28;20200;-68
2022/10/22 02:49:35;;;;;;;1.00;0.80;;;12.60;99.90;;;;;;4991748;28;20203;-67
2022/10/22 02:52:02;;;;;;;1.10;1.00;;;12.60;99.90;;;;;;4991352;28;21002;-67
2022/10/22 02:54:28;;;;;;;1.00;0.90;;;12.60;99.90;;;;;;4991727;28;20224;-67
2022/10/22 02:56:55;;;;;;;0.90;0.80;;;12.60;99.90;;;;;;4991556;28;20207;-67
2022/10/22 02:59:22;;;;;;;1.85;0.90;;;12.60;99.90;;;;;;4991469;28;20207;-67
2022/10/22 03:01:49;;;;;;;1.08;0.80;;;12.70;99.90;;;;;;4990977;28;20204;-67
2022/10/22 03:04:15;;;;;;;1.20;0.80;;;12.60;99.90;;;;;;4991551;28;20227;-67
2022/10/22 03:06:44;;;;;;;1.00;0.90;;;12.60;99.90;;;;;;4991276;28;20486;-67
2022/10/22 03:09:11;;;;;;;0.90;0.80;;;12.60;99.90;;;;;;4991666;28;20226;-67
2022/10/22 03:11:37;;;;;;;1.63;1.00;;;12.60;99.90;;;;;;4990914;28;20246;-68
2022/10/22 03:14:04;;;;;;;1.65;0.82;;;12.60;99.90;;;;;;4991601;28;20227;-67
2022/10/22 03:16:31;;;;;;;1.20;0.90;;;12.60;99.90;;;;;;4991243;28;20207;-67
2022/10/22 03:18:58;;;;;;;0.90;0.80;;;12.70;99.90;;;;;;4991494;28;20982;-67
2022/10/22 03:21:31;;;;;;;3.78;1.13;;;12.70;99.90;;;;;;4991536;28;20206;-67
2022/10/22 03:24:01;;;;;;;1.03;0.93;;;12.60;99.90;;;;;;4991527;28;20223;-67
2022/10/22 03:26:28;;;;;;;1.50;1.05;;;12.60;99.90;;;;;;4991523;28;20502;-67
2022/10/22 03:28:55;;;;;;;1.00;0.90;;;12.50;99.90;;;;;;4991645;28;20207;-67
2022/10/22 03:31:21;;;;;;;1.48;1.00;;;12.60;99.90;;;;;;4990986;28;20223;-67
2022/10/22 03:33:48;;;;;;;1.02;0.90;;;12.60;99.90;;;;;;4991289;28;20230;-67
2022/10/22 03:36:15;;;;;;;1.10;0.80;;;12.60;99.90;;;;;;4991607;28;20207;-67
2022/10/22 03:38:42;;;;;;;1.30;1.00;;;12.60;99.90;;;;;;4991159;28;20211;-67
2022/10/22 03:41:10;;;;;;;1.00;0.70;;;12.60;99.90;;;;;;4991290;28;20887;-67
2022/10/22 03:43:39;;;;;;;1.00;0.90;;;12.60;99.90;;;;;;4990636;28;20208;-67
2022/10/22 03:46:06;;;;;;;1.00;0.80;;;12.50;99.90;;;;;;4991226;28;20207;-67
2022/10/22 03:48:33;;;;;;;0.98;0.88;;;12.50;99.90;;;;;;4991217;28;20227;-67
2022/10/22 03:51:00;;;;;;;1.10;1.00;;;12.60;99.90;;;;;;4991041;28;20238;-67
2022/10/22 03:53:26;;;;;;;1.20;1.10;;;12.50;99.90;;;;;;4990810;28;20208;-67
2022/10/22 03:55:53;;;;;;;1.00;0.90;;;12.50;99.90;;;;;;4991302;28;20207;-67
2022/10/22 03:58:21;;;;;;;1.15;0.90;;;12.50;99.90;;;;;;4991300;28;20207;-68
2022/10/22 04:00:48;;;;;;;5.32;1.20;;;12.50;99.90;;;;;;4990831;28;20208;-67
2022/10/22 04:03:14;;;;;;;1.00;0.90;;;12.40;99.90;;;;;;4990767;28;20212;-67
2022/10/22 04:05:41;;;;;;;1.77;0.80;;;12.40;99.90;;;;;;4990876;28;20226;-67
2022/10/22 04:08:08;;;;;;;1.92;1.00;;;12.40;99.90;;;;;;4991187;28;20596;-67
2022/10/22 04:10:35;;;;;;;0.80;0.70;;;12.40;99.90;;;;;;4992866;28;20208;-67
2022/10/22 04:13:01;;;;;;;1.38;0.90;;;12.40;99.90;;;;;;4994534;28;20220;-67
2022/10/22 04:15:31;;;;;;;1.27;0.90;;;12.30;99.90;;;;;;4994941;28;20223;-67
2022/10/22 04:17:58;;;;;;;1.50;0.90;;;12.40;99.90;;;;;;4994958;28;20203;-67
2022/10/22 04:20:24;;;;;;;2.13;1.05;;;12.40;99.90;;;;;;4994760;28;20199;-67
2022/10/22 04:22:51;;;;;;;0.90;0.70;;;12.40;99.90;;;;;;4994350;28;20215;-67
2022/10/22 04:25:18;;;;;;;1.75;1.00;;;12.40;99.90;;;;;;4994586;28;20224;-67
2022/10/22 04:27:44;;;;;;;0.80;0.70;;;12.40;99.90;;;;;;4994520;28;20206;-68
2022/10/22 04:30:13;;;;;;;0.90;0.80;;;12.40;99.90;;;;;;4994622;28;20581;-67
2022/10/22 04:32:41;;;;;;;1.10;0.80;;;12.40;99.90;;;;;;4993821;28;20235;-67
2022/10/22 04:35:08;;;;;;;1.02;0.90;;;12.40;99.90;;;;;;4994487;28;20300;-67
2022/10/22 04:37:35;;;;;;;3.50;2.25;;;12.40;99.90;;;;;;4994102;28;20211;-67
2022/10/22 04:40:01;;;;;;;1.10;0.80;;;12.40;99.90;;;;;;4994331;28;20214;-67
2022/10/22 04:42:28;;;;;;;0.85;0.70;;;12.40;99.90;;;;;;4993740;28;20201;-67
2022/10/22 04:44:55;;;;;;;0.95;0.80;;;12.40;99.90;;;;;;4994139;28;20587;-67
2022/10/22 04:47:22;;;;;;;0.80;0.80;;;12.40;99.90;;;;;;4994381;28;20606;-67
2022/10/22 04:49:50;;;;;;;2.08;0.80;;;12.40;99.90;;;;;;4993972;28;20215;-67
2022/10/22 04:52:16;;;;;;;1.00;0.90;;;12.30;99.90;;;;;;4993644;28;20231;-67
2022/10/22 04:57:11;;;;;;;1.05;0.90;;;12.30;99.90;;;;;;5003761;28;20214;-67
2022/10/22 04:59:38;;;;;;;2.45;0.90;;;12.30;99.90;;;;;;4998852;28;20199;-68
2022/10/22 05:02:05;;;;;;;1.50;0.75;;;12.40;99.90;;;;;;4993726;28;20196;-67
2022/10/22 05:04:31;;;;;;;4.20;0.80;;;12.40;99.90;;;;;;5003764;28;20223;-67
2022/10/22 05:06:59;;;;;;;1.45;1.08;;;12.40;99.90;;;;;;5013806;28;20466;-69
2022/10/22 05:09:26;;;;;;;3.63;1.00;;;12.40;99.90;;;;;;5013585;28;20211;-69
2022/10/22 05:11:53;;;;;;;1.10;1.00;;;12.30;99.90;;;;;;5013259;28;20721;-69
2022/10/22 05:14:23;;;;;;;1.00;0.80;;;12.40;99.90;;;;;;5013491;28;20230;-69
2022/10/22 05:16:51;;;;;;;1.08;0.88;;;12.40;99.90;;;;;;5013412;28;20646;-69
2022/10/22 05:19:20;;;;;;;0.88;0.80;;;12.40;99.90;;;;;;5013325;28;20273;-69
2022/10/22 05:21:47;;;;;;;1.20;1.10;;;12.40;99.90;;;;;;5012394;28;20203;-69
2022/10/22 05:24:15;;;;;;;2.47;0.90;;;12.40;99.90;;;;;;5013348;28;20234;-69
2022/10/22 05:26:42;;;;;;;1.10;1.00;;;12.40;99.90;;;;;;5013308;28;20214;-68
2022/10/22 05:29:08;;;;;;;1.55;0.95;;;12.40;99.90;;;;;;5012960;28;20627;-68
2022/10/22 05:31:35;;;;;;;2.10;1.00;;;12.30;99.90;;;;;;5012005;28;20219;-68
2022/10/22 05:34:02;;;;;;;0.98;0.80;;;12.30;99.90;;;;;;5012960;28;20230;-68
2022/10/22 05:36:29;;;;;;;1.25;0.93;;;12.30;99.90;;;;;;5012880;28;20213;-68
2022/10/22 05:38:57;;;;;;;1.02;0.80;;;12.30;99.90;;;;;;5013036;28;20285;-68
2022/10/22 05:41:27;;;;;;;1.10;0.93;;;12.30;99.90;;;;;;5012307;28;20209;-68
2022/10/22 05:43:55;;;;;;;1.10;1.00;;;12.30;99.90;;;;;;5009833;28;20223;-68
2022/10/22 05:46:23;;;;;;;0.80;0.80;;;12.30;99.90;;;;;;5003222;28;20199;-67
2022/10/22 05:48:50;;;;;;;1.02;0.80;;;12.30;99.90;;;;;;5002529;28;20196;-68
2022/10/22 05:51:17;;;;;;;1.52;0.90;;;12.30;99.90;;;;;;5000743;28;20223;-68
2022/10/22 05:53:44;;;;;;;1.00;0.90;;;12.40;99.90;;;;;;5012186;28;20227;-68
2022/10/22 05:56:13;;;;;;;1.02;0.85;;;12.40;99.90;;;;;;5012523;28;20210;-68
2022/10/22 05:58:42;;;;;;;1.08;0.98;;;12.40;99.90;;;;;;5012079;28;20207;-68
2022/10/22 06:01:13;;;;;;;1.65;0.80;;;12.40;99.90;;;;;;5012353;28;20700;-68
2022/10/22 06:03:40;;;;;;;1.08;0.80;;;12.40;99.90;;;;;;5012203;28;20223;-68
2022/10/22 06:06:17;;;;;;;0.80;0.73;;;12.40;99.90;;;;;;5013141;28;20210;-68
2022/10/22 06:08:44;;;;;;;0.93;0.75;;;12.40;99.90;;;;;;5012299;28;20201;-68
2022/10/22 06:11:10;;;;;;;1.55;0.90;;;12.40;99.90;;;;;;5012066;28;20674;-68
2022/10/22 06:13:37;;;;;;;1.08;0.80;;;12.40;99.90;;;;;;5011831;28;20569;-68
2022/10/22 06:16:05;;;;;;;0.90;0.70;;;12.40;99.90;;;;;;5012209;28;20209;-68
2022/10/22 06:18:33;;;;;;;1.10;0.98;;;12.40;99.90;;;;;;5011654;28;20207;-68
2022/10/22 06:21:05;;;;;;;0.85;0.80;;;12.40;99.90;;;;;;5012096;28;20203;-68
2022/10/22 06:23:31;;;;;;;0.80;0.70;;;12.40;99.90;;;;;;5011466;28;20294;-68
2022/10/22 06:25:59;;;;;;;3.80;0.80;;;12.40;99.90;;;;;;5011872;28;20207;-68
2022/10/22 06:28:26;;;;;;;0.95;0.85;;;12.50;99.90;;;;;;5011886;28;20200;-67
2022/10/22 06:30:53;;;;;;;1.45;0.88;;;12.50;99.90;;;;;;5010503;28;20198;-68
2022/10/22 06:33:21;;;;;;;1.15;0.85;;;12.50;99.90;;;;;;5010174;28;20230;-67
2022/10/22 06:35:48;;;;;;;1.15;0.80;;;12.50;99.90;;;;;;5011529;28;20214;-68
2022/10/22 06:38:15;;;;;;;2.05;0.90;;;12.50;99.90;;;;;;5011564;28;20207;-68
2022/10/22 06:40:42;;;;;;;1.10;0.80;;;12.50;99.90;;;;;;5011165;28;20206;-68
2022/10/22 06:43:09;;;;;;;0.88;0.80;;;12.50;99.90;;;;;;5011109;28;20294;-68
2022/10/22 06:45:35;;;;;;;0.90;0.80;;;12.50;99.90;;;;;;5011175;28;20717;-68
2022/10/22 06:48:02;;;;;;;0.90;0.73;;;12.50;99.90;;;;;;5011741;28;20210;-68
2022/10/22 06:50:30;;;;;;;1.73;1.00;;;12.60;99.90;;;;;;5011485;28;20579;-68
2022/10/22 06:52:57;;;;;;;1.15;0.77;;;12.60;99.90;;;;;;5011100;28;20238;-68
2022/10/22 06:55:24;;;;;;;0.90;0.70;;;12.60;99.90;;;;;;5011540;28;20230;-68
2022/10/22 06:57:51;;;;;;;0.98;0.70;;;12.60;99.90;;;;;;5011256;28;20199;-68
2022/10/22 07:00:18;;;;;;;0.90;0.80;;;12.70;99.90;;;;;;5011296;28;20219;-68
2022/10/22 07:02:51;;;;;;;1.00;0.80;;;12.70;99.90;;;;;;5010079;28;20682;-68
2022/10/22 07:05:18;;;;;;;1.52;1.42;;;12.70;99.90;;;;;;5011100;28;20223;-68
2022/10/22 07:07:46;;;;;;;1.65;0.98;;;12.70;99.90;;;;;;5066986;22;20722;-92
2022/10/22 07:10:14;;;;;;;1.98;1.15;;;12.70;99.90;;;;;;5044737;28;20190;-94
2022/10/22 07:16:00;;;;;;;0.98;0.88;;;12.80;99.90;;;;;;5056297;28;20220;-96
2022/10/22 07:21:37;;;;;;;0.95;0.85;;;12.80;99.90;;;;;;5029937;28;20232;-92
2022/10/22 07:26:47;;;;;;;1.38;1.00;;;12.80;99.90;;;;;;5049738;28;20178;-94
2022/10/22 07:29:23;;;;;;;1.20;1.00;;;12.90;99.90;;;;;;5049758;28;20245;-94
2022/10/22 07:34:39;;;;;;;1.00;0.90;;;12.90;99.90;;;;;;5050742;28;20437;-94
2022/10/22 07:40:03;;;;;;;1.23;0.95;;;12.90;99.90;;;;;;5051848;22;20759;-67
2022/10/22 07:42:30;;;;;;;1.33;1.02;;;13.00;99.90;;;;;;5030185;28;20210;-67
2022/10/22 07:44:57;;;;;;;1.15;1.02;;;13.00;99.90;;;;;;5033419;28;20222;-67
2022/10/22 07:47:23;;;;;;;1.33;1.00;;;13.00;99.90;;;;;;5034536;28;20206;-67
2022/10/22 07:49:50;;;;;;;1.53;1.07;;;13.10;99.90;;;;;;5034481;28;20471;-67
2022/10/22 07:52:17;;;;;;;1.40;0.93;;;13.20;99.90;;;;;;5033915;28;20507;-67
2022/10/22 07:54:44;;;;;;;1.55;1.35;;;13.20;99.90;;;;;;5034270;28;20588;-67
2022/10/22 07:57:12;;;;;;;1.50;1.08;;;13.20;99.90;;;;;;5034159;28;20210;-67
2022/10/22 07:59:38;;;;;;;1.00;0.90;;;13.30;99.90;;;;;;5034078;28;20202;-67
2022/10/22 08:02:05;;;;;;;3.08;1.08;;;13.30;99.90;;;;;;5033629;28;20198;-67
2022/10/22 08:04:32;;;;;;;3.35;1.20;;;13.40;99.90;;;;;;5033941;28;20229;-66
2022/10/22 08:06:58;;;;;;;1.08;0.90;;;13.50;99.90;;;;;;5034070;28;20270;-67
2022/10/22 08:09:25;;;;;;;1.00;0.90;;;13.50;99.90;;;;;;5033955;28;20225;-67
2022/10/22 08:11:53;;;;;;;1.23;1.13;;;13.50;99.90;;;;;;5033428;28;20230;-67
2022/10/22 08:14:21;;;;;;;1.27;1.10;;;13.60;99.90;;;;;;5033738;28;20655;-67
2022/10/22 08:16:48;;;;;;;1.50;1.10;;;13.60;99.90;;;;;;5033686;28;20472;-67
2022/10/22 08:19:17;;;;;;;1.42;1.20;;;13.60;99.90;;;;;;5033550;28;20697;-67
2022/10/22 08:21:44;;;;;;;1.10;1.00;;;13.60;99.90;;;;;;5033336;28;20207;-67
2022/10/22 08:24:11;;;;;;;1.03;0.93;;;13.80;99.90;;;;;;5033549;28;20218;-67
2022/10/22 08:26:38;;;;;;;0.90;0.80;;;14.10;99.90;;;;;;5033578;28;20460;-67
2022/10/22 08:29:05;;;;;;;1.03;0.90;;;14.20;99.90;;;;;;5033524;28;20703;-67
2022/10/22 08:31:33;;;;;;;1.13;0.90;;;14.20;99.90;;;;;;5033022;28;20469;-67
2022/10/22 08:34:00;;;;;;;2.63;1.10;;;14.30;99.90;;;;;;5033325;28;20489;-67
2022/10/22 08:36:27;;;;;;;1.43;0.90;;;14.40;99.90;;;;;;5033271;28;20472;-67
2022/10/22 08:38:53;;;;;;;1.00;0.90;;;14.50;99.90;;;;;;5033350;28;20468;-67
2022/10/22 08:41:23;;;;;;;1.23;1.00;;;14.80;99.90;;;;;;5032541;28;20836;-67
2022/10/22 08:44:12;;;;;;;1.80;1.50;;;15.20;99.90;;;;;;5033396;28;20481;-67
2022/10/22 08:46:54;;;;;;;1.03;0.93;;;15.60;99.90;;;;;;5033644;28;20840;-66
2022/10/22 08:49:22;;;;;;;1.40;1.30;;;16.00;99.90;;;;;;5032901;28;20464;-67
2022/10/22 08:51:50;;;;;;;1.10;1.00;;;16.30;99.90;;;;;;5032598;28;20457;-67
2022/10/22 08:54:28;;;;;;;1.60;1.30;;;16.60;99.90;;;;;;5032811;28;20485;-67
2022/10/22 08:57:11;;;;;;;1.27;0.97;;;16.90;99.90;;;;;;5032665;28;20467;-67
2022/10/22 08:59:45;;;;;;;1.40;1.23;;;17.10;99.90;;;;;;5033161;28;20484;-67
2022/10/22 09:02:28;;;;;;;1.60;1.23;;;17.30;99.90;;;;;;5032447;28;20753;-67
2022/10/22 09:05:02;;;;;;;1.10;1.00;;;17.40;99.90;;;;;;5032938;28;20488;-67
2022/10/22 09:07:31;;;;;;;1.30;1.10;;;17.50;99.90;;;;;;5029308;28;20465;-67
2022/10/22 09:10:03;;;;;;;1.47;1.00;;;17.60;99.90;;;;;;5031586;28;20458;-67
2022/10/22 09:12:31;;;;;;;1.30;1.00;;;17.90;99.90;;;;;;5032016;28;20963;-67
2022/10/22 09:14:58;;;;;;;1.10;1.00;;;18.10;99.90;;;;;;5030012;28;20476;-67
2022/10/22 09:17:36;;;;;;;1.00;0.90;;;18.30;99.90;;;;;;5032638;28;20473;-67
2022/10/22 09:20:09;;;;;;;1.20;0.90;;;18.50;99.90;;;;;;5032568;28;20468;-67
2022/10/22 09:22:46;;;;;;;1.20;1.10;;;18.80;99.90;;;;;;5031762;28;20554;-67
2022/10/22 09:25:19;;;;;;;1.00;0.90;;;19.00;99.90;;;;;;5032074;28;20480;-67
2022/10/22 09:27:47;;;;;;;1.80;1.57;;;19.10;99.90;;;;;;5032484;28;20965;-67
2022/10/22 09:30:16;;;;;;;1.00;0.83;;;19.30;99.90;;;;;;5031698;28;20462;-67
2022/10/22 09:32:45;;;;;;;1.50;0.90;;;19.50;99.90;;;;;;5030523;28;20845;-67
2022/10/22 09:35:21;;;;;;;1.00;0.90;;;19.70;99.90;;;;;;5032088;28;20476;-67
2022/10/22 09:37:50;;;;;;;1.10;0.90;;;19.90;99.90;;;;;;5031372;28;20463;-67
2022/10/22 09:40:18;;;;;;;1.40;1.00;;;20.10;99.90;;;;;;5032019;28;20473;-67
2022/10/22 09:42:46;;;;;;;1.60;1.00;;;20.20;99.90;;;;;;5031681;28;20827;-67
2022/10/22 09:45:19;;;;;;;0.90;0.77;;;20.30;99.90;;;;;;5032026;28;20878;-67
2022/10/22 09:47:47;;;;;;;1.20;1.00;;;20.50;99.90;;;;;;5032187;28;20520;-69
2022/10/22 09:50:28;;;;;;;1.37;1.00;;;20.50;99.90;;;;;;5031324;28;20839;-69
2022/10/22 09:52:59;;;;;;;0.93;0.83;;;20.60;99.90;;;;;;5032273;28;20980;-66
2022/10/22 09:55:27;;;;;;;1.10;0.93;;;20.70;99.90;;;;;;5030961;28;20993;-66
2022/10/22 09:57:58;;;;;;;2.10;1.00;;;20.90;99.90;;;;;;5030157;28;20454;-68
2022/10/22 10:00:25;;;;;;;1.23;0.90;;;21.00;99.90;;;;;;5031363;28;20955;-69
2022/10/22 10:02:56;;;;;;;2.50;1.20;;;21.10;99.90;;;;;;5031040;28;20457;-68
2022/10/22 10:05:28;;;;;;;1.40;1.20;;;21.20;99.90;;;;;;5031492;28;20506;-68
2022/10/22 10:07:55;;;;;;;1.00;0.90;;;21.40;99.90;;;;;;5031666;28;20462;-68
2022/10/22 10:10:33;;;;;;;1.03;0.83;;;21.40;99.90;;;;;;5031347;28;20514;-68
2022/10/22 10:13:08;;;;;;;2.20;1.20;;;21.50;99.90;;;;;;5030777;28;20488;-68
2022/10/22 10:15:42;;;;;;;1.47;1.00;;;21.50;99.90;;;;;;5031369;28;20497;-68
2022/10/22 10:18:21;;;;;;;1.83;1.00;;;21.70;99.90;;;;;;5031557;28;20471;-68
2022/10/22 10:20:56;;;;;;;1.17;1.00;;;21.80;99.90;;;;;;5031185;28;20470;-68
2022/10/22 10:23:31;;;;;;;4.13;1.30;;;22.20;99.90;;;;;;5030697;28;20824;-68
2022/10/22 10:26:04;;;;;;;1.23;1.07;;;22.40;99.90;;;;;;5031667;28;20467;-69
2022/10/22 10:28:39;;;;;;;1.30;1.20;;;22.50;99.90;;;;;;5030756;28;20466;-69
2022/10/22 10:31:16;;;;;;;2.63;1.23;;;22.50;99.90;;;;;;5031041;28;20459;-70
2022/10/22 10:33:53;;;;;;;2.27;1.20;;;22.50;99.90;;;;;;5031140;28;20862;-68
2022/10/22 10:36:31;;;;;;;3.87;1.13;;;22.40;99.90;;;;;;5030963;28;20463;-68
2022/10/22 10:39:04;;;;;;;1.87;1.17;;;22.50;99.90;;;;;;5031035;28;20464;-68
2022/10/22 10:41:42;;;;;;;1.30;1.00;;;22.60;99.90;;;;;;5030178;28;20471;-69
2022/10/22 10:44:41;;;;;;;3.03;1.33;;;22.70;99.90;;;;;;5030801;28;20860;-68
2022/10/22 10:47:19;;;;;;;1.30;1.00;;;22.70;99.90;;;;;;5030973;28;20486;-68
2022/10/22 10:49:48;;;;;;;1.10;0.90;;;22.90;99.90;;;;;;5030838;28;20468;-69
2022/10/22 10:52:27;;;;;;;1.67;1.33;;;22.90;99.90;;;;;;5029375;28;20464;-69
2022/10/22 10:55:01;;;;;;;2.83;1.17;;;22.80;99.90;;;;;;5030694;28;21010;-68
2022/10/22 10:57:39;;;;;;;2.13;1.20;;;22.80;99.90;;;;;;5030807;28;20467;-68
2022/10/22 11:00:09;;;;;;;1.80;1.00;;;22.80;99.90;;;;;;5030671;28;20619;-68
2022/10/22 11:03:00;;;;;;;1.10;1.00;;;22.80;99.90;;;;;;5030524;28;20469;-69
2022/10/22 11:05:38;;;;;;;1.70;1.30;;;23.00;99.90;;;;;;5017137;28;20840;-69
2022/10/22 11:08:11;;;;;;;0.90;0.77;;;23.20;99.90;;;;;;5030873;28;20508;-69
2022/10/22 11:10:41;;;;;;;2.30;1.27;;;23.20;99.90;;;;;;5030543;28;20474;-69
2022/10/22 11:13:15;;;;;;;1.40;1.17;;;23.30;99.90;;;;;;5029949;28;20856;-68
2022/10/22 11:15:47;;;;;;;2.57;1.10;;;23.50;99.90;;;;;;5030832;28;20481;-69
2022/10/22 11:18:18;;;;;;;1.40;1.13;;;23.50;99.90;;;;;;5030159;28;20469;-69
2022/10/22 11:20:55;;;;;;;2.20;1.43;;;23.50;99.90;;;;;;5030321;28;20476;-69
2022/10/22 11:23:28;;;;;;;2.20;1.23;;;23.50;99.90;;;;;;5029513;28;20810;-69
2022/10/22 11:25:54;;;;;;;1.60;1.30;;;23.70;99.90;;;;;;5030104;28;20515;-69
2022/10/22 11:28:27;;;;;;;1.67;1.50;;;23.70;99.90;;;;;;5029717;28;20461;-69
2022/10/22 11:30:59;;;;;;;1.10;1.00;;;23.90;99.90;;;;;;5030030;28;20457;-69
2022/10/22 11:33:32;;;;;;;2.00;1.10;;;24.00;99.90;;;;;;5029121;28;20503;-69
2022/10/22 11:36:05;;;;;;;1.73;0.83;;;23.70;99.90;;;;;;5043746;28;20496;-69
2022/10/22 11:38:34;;;;;;;1.30;0.97;;;23.30;99.90;;;;;;5049769;28;20464;-69
2022/10/22 11:41:05;;;;;;;1.03;0.93;;;23.20;99.90;;;;;;5049557;28;21027;-69
2022/10/22 11:43:35;;;;;;;1.30;1.00;;;23.10;99.90;;;;;;5026435;28;21046;-69
2022/10/22 11:46:08;;;;;;;1.00;0.80;;;22.80;99.90;;;;;;5029994;28;20545;-69
2022/10/22 11:48:38;;;;;;;2.90;1.10;;;22.50;99.90;;;;;;5030200;28;20468;-69
2022/10/22 11:51:31;;;;;;;1.10;1.00;;;22.30;99.90;;;;;;5037911;28;20859;-68
2022/10/22 11:54:03;;;;;;;1.47;1.10;;;21.90;99.90;;;;;;5041533;28;20510;-69
2022/10/22 11:56:37;;;;;;;1.67;1.20;;;21.60;99.90;;;;;;5037690;28;20549;-69
2022/10/22 11:59:28;;;;;;;1.77;1.00;;;21.20;99.90;;;;;;5026551;28;20460;-69
2022/10/22 12:01:56;;;;;;;3.33;1.17;;;21.00;99.90;;;;;;5030011;28;20460;-68
2022/10/22 12:04:39;;;;;;;1.03;0.83;;;20.90;99.90;;;;;;5030299;28;20482;-69
2022/10/22 12:07:33;;;;;;;1.20;1.00;;;21.10;99.90;;;;;;5029715;28;20470;-69
2022/10/22 12:10:04;;;;;;;1.43;1.10;;;21.20;99.90;;;;;;5028648;28;20979;-68
2022/10/22 12:12:38;;;;;;;1.07;0.90;;;21.20;99.90;;;;;;5029479;28;20956;-69
2022/10/22 12:15:22;;;;;;;3.30;1.33;;;21.40;99.90;;;;;;5030035;28;20499;-69
2022/10/22 12:17:50;;;;;;;1.23;1.00;;;21.80;99.90;;;;;;5030364;28;20462;-67
2022/10/22 12:20:17;;;;;;;1.20;1.10;;;22.10;99.90;;;;;;5029751;28;20463;-67
2022/10/22 12:22:46;;;;;;;1.10;1.00;;;21.90;99.90;;;;;;5029985;28;20469;-67
2022/10/22 12:25:20;;;;;;;1.80;1.07;;;21.60;99.90;;;;;;5029546;28;20510;-67
2022/10/22 12:27:52;;;;;;;1.90;1.20;;;21.40;99.90;;;;;;5030018;28;20524;-66
2022/10/22 12:30:22;;;;;;;1.37;1.03;;;21.20;99.90;;;;;;5030205;28;20519;-67
2022/10/22 12:32:52;;;;;;;1.70;0.97;;;21.00;99.90;;;;;;5033970;28;20509;-67
2022/10/22 12:35:22;;;;;;;1.27;1.00;;;20.90;99.90;;;;;;5033231;28;20497;-67
2022/10/22 12:37:52;;;;;;;2.30;1.00;;;20.70;99.90;;;;;;5033318;28;20468;-67
2022/10/22 12:40:22;;;;;;;1.20;0.90;;;20.40;99.90;;;;;;5033632;28;20889;-68
2022/10/22 12:42:51;;;;;;;1.60;1.20;;;20.20;99.90;;;;;;5032975;28;20457;-67
2022/10/22 12:45:17;;;;;;;1.10;1.00;;;20.10;99.90;;;;;;5033293;28;20482;-67
2022/10/22 12:47:48;;;;;;;1.47;0.90;;;20.10;99.90;;;;;;5033838;28;20465;-67
2022/10/22 12:50:20;;;;;;;1.07;0.97;;;20.10;99.90;;;;;;5032683;28;20459;-68
2022/10/22 12:52:47;;;;;;;2.60;1.10;;;20.30;99.90;;;;;;5033055;28;20462;-67
2022/10/22 12:55:17;;;;;;;1.50;0.90;;;20.80;99.90;;;;;;5033035;28;20493;-67
2022/10/22 12:57:47;;;;;;;1.30;1.00;;;21.10;99.90;;;;;;5033161;28;20471;-67
2022/10/22 13:00:22;;;;;;;1.50;1.40;;;21.50;99.90;;;;;;5033286;28;20978;-67
2022/10/22 13:02:50;;;;;;;1.70;1.20;;;21.70;99.90;;;;;;5032379;28;20465;-67
2022/10/22 13:05:23;;;;;;;0.90;0.80;;;21.80;99.90;;;;;;5029160;28;20552;-65
2022/10/22 13:07:53;;;;;;;1.20;1.00;;;21.60;99.90;;;;;;5032435;28;20472;-66
2022/10/22 13:10:26;;;;;;;1.53;0.97;;;21.50;99.90;;;;;;5031880;28;20460;-66
2022/10/22 13:12:56;;;;;;;1.17;0.90;;;21.50;99.90;;;;;;5030757;28;20463;-67
2022/10/22 13:15:34;;;;;;;2.20;1.43;;;21.40;99.90;;;;;;5030842;28;20494;-67
2022/10/22 13:18:07;;;;;;;1.40;1.30;;;21.10;99.90;;;;;;5031613;28;20491;-67
2022/10/22 13:20:36;;;;;;;1.17;1.07;;;20.80;99.90;;;;;;5030974;28;20473;-67